Time;durP1;ratioP1;P1;durP2;ratioP2;P2;SDS_P1;SDS_P2;PMS_P1;PMS_P2;Temp;Humidity;BMP_temperature;BMP_pressure;BME280_temperature;BME280_humidity;BME280_pressure;Samples;Min_cycle;Max_cycle;Signal;HPM_P1;HPM_P2
2023/09/18 00:06:04;;;;;;;8.93;3.75;;;;;;;21.09;73.64;98444.53;7338984;39;20260;31
2023/09/18 00:16:41;;;;;;;6.37;3.60;;;;;;;21.16;73.39;98437.00;7262833;40;21376;31
2023/09/18 00:27:03;;;;;;;10.30;4.80;;;;;;;21.20;73.72;98431.81;7302676;39;21167;31
2023/09/18 00:32:33;;;;;;;7.85;4.10;;;;;;;21.25;72.44;98416.28;7362009;39;20451;31
2023/09/18 00:37:54;;;;;;;6.80;4.00;;;;;;;21.31;72.79;98414.44;7301341;39;20287;31
2023/09/18 00:43:29;;;;;;;8.60;4.16;;;;;;;21.35;73.50;98421.91;7301224;40;20753;31
2023/09/18 00:49:05;;;;;;;6.86;3.74;;;;;;;21.26;73.31;98419.84;7237035;40;20257;31
2023/09/18 00:54:39;;;;;;;7.35;3.75;;;;;;;21.35;73.77;98404.62;7257268;40;21206;31
2023/09/18 01:00:17;;;;;;;6.47;3.58;;;;;;;21.41;73.21;98395.38;7281469;40;20447;31
2023/09/18 01:05:51;;;;;;;6.82;3.80;;;;;;;21.44;73.34;98414.91;7227706;40;20368;31
2023/09/18 01:11:26;;;;;;;11.85;5.12;;;;;;;21.48;75.68;98421.53;7212208;40;20246;31
2023/09/18 01:17:01;;;;;;;11.35;4.57;;;;;;;21.10;77.59;98416.06;7171111;40;20250;31
2023/09/18 01:22:35;;;;;;;12.07;4.80;;;;;;;21.07;79.02;98428.34;7197129;40;20768;31
2023/09/18 01:28:09;;;;;;;7.43;3.87;;;;;;;21.23;78.51;98423.94;7217911;40;20886;31
2023/09/18 01:33:44;;;;;;;7.22;4.20;;;;;;;21.35;78.38;98438.34;7240091;40;20757;31
2023/09/18 01:39:19;;;;;;;6.35;3.85;;;;;;;21.43;77.95;98446.13;7266599;40;20369;31
2023/09/18 01:44:54;;;;;;;5.87;3.80;;;;;;;21.46;78.73;98447.53;7279687;39;20249;31
2023/09/18 01:50:25;;;;;;;6.87;4.00;;;;;;;21.41;78.90;98456.50;7318438;39;20455;31
2023/09/18 01:55:47;;;;;;;10.23;3.70;;;;;;;21.46;79.28;98456.59;7271474;39;20276;31
2023/09/18 02:07:25;;;;;;;9.10;3.03;;;;;;;21.73;75.08;98455.81;7302921;39;21202;31
2023/09/18 02:12:45;;;;;;;7.32;2.78;;;;;;;22.02;72.88;98485.56;7256155;40;20292;31
2023/09/18 02:18:05;;;;;;;9.00;3.10;;;;;;;22.23;71.30;98477.53;7302683;39;20251;31
2023/09/18 02:23:42;;;;;;;9.68;3.60;;;;;;;22.36;71.05;98436.75;7318127;39;20287;31
2023/09/18 02:29:17;;;;;;;12.40;3.60;;;;;;;22.38;72.46;98434.56;7284334;39;20280;31
2023/09/18 02:34:52;;;;;;;13.10;3.75;;;;;;;22.33;72.67;98440.03;7286349;40;20295;31
2023/09/18 02:40:26;;;;;;;11.75;3.83;;;;;;;22.28;72.90;98431.75;7227399;40;20312;31
2023/09/18 02:45:46;;;;;;;11.40;3.90;;;;;;;22.30;73.85;98428.72;7226673;40;20250;31
2023/09/18 02:51:34;;;;;;;14.73;4.00;;;;;;;22.21;74.02;98427.53;7233948;40;20249;31
2023/09/18 02:57:10;;;;;;;9.32;3.75;;;;;;;22.19;74.12;98422.31;7239006;40;20245;31
2023/09/18 03:02:32;;;;;;;9.60;3.36;;;;;;;22.19;73.20;98425.06;7213800;40;20270;31
2023/09/18 03:07:52;;;;;;;9.18;3.10;;;;;;;22.17;72.13;98419.00;7206507;40;20265;31
2023/09/18 03:13:29;;;;;;;11.62;2.76;;;;;;;22.09;72.78;98443.34;7233153;40;20241;31
2023/09/18 03:18:49;;;;;;;11.65;3.20;;;;;;;22.09;73.18;98446.09;7326228;39;20256;31
2023/09/18 03:24:10;;;;;;;8.75;2.90;;;;;;;22.02;73.14;98480.06;7338304;39;20264;31
2023/09/18 03:29:51;;;;;;;8.70;3.10;;;;;;;21.92;74.61;98501.91;7314966;39;21586;31
2023/09/18 03:35:26;;;;;;;12.35;3.67;;;;;;;21.79;75.88;98512.41;7293621;39;20409;31
2023/09/18 03:40:46;;;;;;;15.40;3.80;;;;;;;21.76;74.86;98475.34;7286887;39;20244;31
2023/09/18 03:46:23;;;;;;;11.60;3.55;;;;;;;21.80;75.68;98459.19;7267617;40;20992;31
2023/09/18 03:51:58;;;;;;;13.90;4.10;;;;;;;21.78;77.25;98477.81;7245772;40;20238;31
2023/09/18 03:57:18;;;;;;;13.52;4.34;;;;;;;21.59;79.09;98452.63;7237663;40;20541;31
2023/09/18 04:02:55;;;;;;;11.38;4.34;;;;;;;21.39;80.57;98442.25;7262749;40;20767;31
2023/09/18 04:08:15;;;;;;;16.48;4.88;;;;;;;21.41;79.45;98398.13;7237512;40;20246;31
2023/09/18 04:13:50;;;;;;;13.35;4.75;;;;;;;21.24;81.49;98373.50;7232332;40;20697;31
2023/09/18 04:19:26;;;;;;;12.68;4.75;;;;;;;21.13;81.47;98372.56;7239298;40;20292;31
2023/09/18 04:30:05;;;;;;;15.65;4.90;;;;;;;20.97;83.47;98359.72;7253279;40;20288;31
2023/09/18 04:40:56;;;;;;;16.30;4.72;;;;;;;20.97;83.59;98376.16;7312057;39;20326;31
2023/09/18 04:51:21;;;;;;;10.68;4.78;;;;;;;20.89;83.42;98382.06;7281476;39;20276;31
2023/09/18 04:56:59;;;;;;;11.22;4.20;;;;;;;20.94;82.71;98412.25;7265762;40;20314;31
2023/09/18 05:02:34;;;;;;;10.34;4.32;;;;;;;20.92;83.07;98403.50;7289573;39;20362;31
2023/09/18 05:13:16;;;;;;;8.90;3.40;;;;;;;21.01;83.02;98453.22;7283385;40;21013;31
2023/09/18 05:18:48;;;;;;;;;;;;;;;;;;;;;
2023/09/18 05:29:19;;;;;;;9.93;3.35;;;;;;;21.03;82.88;98416.22;7317490;39;20272;31
2023/09/18 05:34:54;;;;;;;11.00;3.90;;;;;;;21.08;82.41;98429.19;7319929;39;20252;31
2023/09/18 05:40:29;;;;;;;11.06;3.56;;;;;;;21.01;83.44;98420.31;7298885;39;20421;31
2023/09/18 05:46:07;;;;;;;11.12;3.35;;;;;;;21.01;82.16;98421.16;7199176;40;20243;31
2023/09/18 05:51:40;;;;;;;10.66;2.90;;;;;;;21.03;81.47;98415.41;7118953;40;20243;31
2023/09/18 05:57:02;;;;;;;11.25;3.12;;;;;;;21.06;82.41;98436.84;7093964;41;20267;31
2023/09/18 06:02:38;;;;;;;7.12;3.00;;;;;;;21.04;81.29;98445.31;7151763;40;20242;31
2023/09/18 06:08:14;;;;;;;6.45;2.75;;;;;;;21.07;81.10;98461.22;7153604;40;20231;31
2023/09/18 06:13:36;;;;;;;7.78;2.62;;;;;;;21.06;81.61;98459.56;7198219;40;20257;31
2023/09/18 06:19:13;;;;;;;6.57;2.40;;;;;;;21.04;80.61;98460.91;7275150;39;20244;31
2023/09/18 06:24:32;;;;;;;6.50;2.55;;;;;;;21.06;81.32;98475.22;7062974;40;20358;31
2023/09/18 06:29:56;;;;;;;6.43;2.22;;;;;;;21.02;80.50;98483.06;7309317;39;21069;31
2023/09/18 06:35:33;;;;;;;4.28;1.94;;;;;;;21.01;79.40;98505.28;7328095;39;20239;31
2023/09/18 06:41:09;;;;;;;8.50;2.30;;;;;;;20.94;80.12;98486.25;7320024;39;20260;31
2023/09/18 06:51:49;;;;;;;5.60;2.20;;;;;;;21.00;80.94;98511.81;7280147;40;21095;31
2023/09/18 07:02:29;;;;;;;6.20;2.20;;;;;;;21.07;79.90;98504.25;7324560;39;20282;31
2023/09/18 07:08:11;;;;;;;6.22;2.20;;;;;;;21.12;80.66;98521.63;7277949;39;20375;31
2023/09/18 07:13:25;;;;;;;5.44;2.14;;;;;;;21.17;81.02;98520.88;7281702;40;20252;31
2023/09/18 07:19:01;;;;;;;5.35;2.25;;;;;;;21.11;80.35;98525.41;7300220;40;20237;31
2023/09/18 07:24:40;;;;;;;4.35;2.20;;;;;;;21.09;81.47;98530.34;7259642;40;20269;31
2023/09/18 07:30:11;;;;;;;8.95;2.30;;;;;;;21.07;80.71;98539.88;7241939;39;20244;31
2023/09/18 07:35:33;;;;;;;5.12;2.30;;;;;;;21.07;81.60;98570.03;7249327;40;20395;31
2023/09/18 07:41:03;;;;;;;4.75;1.80;;;;;;;21.02;81.51;98561.72;7264193;39;20274;31
2023/09/18 07:46:44;;;;;;;9.63;2.10;;;;;;;20.91;82.39;98559.91;7238379;40;20312;31
2023/09/18 07:52:05;;;;;;;6.10;2.20;;;;;;;20.90;82.20;98564.53;7214381;40;20273;31
2023/09/18 08:02:49;;;;;;;5.10;1.70;;;;;;;20.85;82.55;98550.75;7214318;40;21116;31
2023/09/18 08:08:07;;;;;;;9.70;2.35;;;;;;;20.81;82.12;98546.03;7226393;40;20379;31
2023/09/18 08:13:27;;;;;;;3.62;1.65;;;;;;;20.88;82.31;98549.44;7223988;40;20335;31
2023/09/18 08:24:25;;;;;;;4.65;1.85;;;;;;;20.94;81.47;98510.06;7197517;40;20250;31
2023/09/18 08:29:59;;;;;;;3.97;1.62;;;;;;;20.97;81.55;98507.69;7238791;40;20386;31
2023/09/18 08:35:40;;;;;;;4.97;1.87;;;;;;;21.02;80.84;98506.91;7298594;40;20251;31
2023/09/18 08:41:18;;;;;;;5.25;2.45;;;;;;;21.10;81.96;98517.47;7308991;39;20375;31
2023/09/18 08:46:53;;;;;;;4.28;1.77;;;;;;;21.20;80.57;98505.84;7261195;40;20244;31
2023/09/18 08:52:27;;;;;;;5.70;1.80;;;;;;;21.28;81.14;98498.00;7224169;40;20246;31
2023/09/18 08:58:02;;;;;;;4.85;2.10;;;;;;;21.38;81.32;98533.81;7216968;40;20246;31
2023/09/18 09:03:22;;;;;;;4.05;1.90;;;;;;;21.54;80.28;98549.38;7263833;39;20307;31
2023/09/18 09:09:01;;;;;;;5.08;1.96;;;;;;;21.45;81.13;98542.69;7258999;40;20241;31
2023/09/18 09:14:22;;;;;;;2.97;1.73;;;;;;;21.54;80.54;98565.03;7224513;40;20262;31
2023/09/18 09:19:56;;;;;;;4.05;2.03;;;;;;;21.56;79.84;98571.09;7289606;39;20275;31
2023/09/18 09:25:36;;;;;;;6.37;2.00;;;;;;;21.51;79.43;98560.87;7267036;40;20318;31
2023/09/18 09:31:15;;;;;;;5.47;1.92;;;;;;;21.53;79.49;98566.13;7233203;40;20242;31
2023/09/18 09:36:46;;;;;;;3.65;1.80;;;;;;;21.47;79.06;98565.19;7168568;40;20275;31
2023/09/18 09:47:26;;;;;;;6.80;2.22;;;;;;;21.47;79.57;98553.41;7249763;40;21110;31
2023/09/18 09:58:04;;;;;;;4.45;1.80;;;;;;;21.61;80.17;98549.22;7322150;39;20267;31
2023/09/18 10:03:40;;;;;;;3.80;1.90;;;;;;;21.66;79.29;98553.94;7295430;39;20809;31
2023/09/18 10:09:15;;;;;;;4.20;2.00;;;;;;;21.74;79.53;98562.56;7225569;40;20410;31
2023/09/18 10:14:50;;;;;;;4.30;2.00;;;;;;;21.90;78.95;98550.69;7140335;40;20310;31
2023/09/18 10:20:26;;;;;;;4.80;1.83;;;;;;;21.93;78.60;98557.62;7138605;40;20792;31
2023/09/18 10:26:03;;;;;;;7.60;2.10;;;;;;;22.02;77.94;98556.94;7172271;40;20246;31
2023/09/18 10:31:32;;;;;;;3.87;1.80;;;;;;;22.13;77.91;98557.03;7202346;40;20266;31
2023/09/18 10:37:11;;;;;;;5.35;2.20;;;;;;;22.07;77.85;98536.94;7237897;40;20249;31
2023/09/18 10:42:46;;;;;;;4.75;2.05;;;;;;;22.11;77.50;98545.50;7220143;40;20242;31
2023/09/18 10:59:13;;;;;;;4.65;1.75;;;;;;;22.18;76.88;98552.44;7329891;39;20722;31
2023/09/18 11:10:00;;;;;;;4.90;2.00;;;;;;;22.28;76.69;98547.06;7315273;39;21069;31
2023/09/18 11:15:43;;;;;;;3.37;1.98;;;;;;;22.32;76.67;98537.22;7257526;40;20323;31
2023/09/18 11:21:24;;;;;;;7.95;2.45;;;;;;;22.36;76.36;98543.84;7254112;40;20300;31
2023/09/18 11:27:00;;;;;;;5.52;2.06;;;;;;;22.47;75.71;98531.03;7268326;39;20261;31
2023/09/18 11:32:32;;;;;;;4.37;1.77;;;;;;;22.70;75.29;98540.91;7197427;40;20323;31
2023/09/18 11:38:17;;;;;;;6.40;2.00;;;;;;;22.68;74.88;98543.91;7235164;40;20234;31
2023/09/18 11:43:54;;;;;;;4.85;2.00;;;;;;;22.69;74.61;98550.19;7288039;40;20252;31
2023/09/18 11:49:26;;;;;;;4.45;2.10;;;;;;;22.76;74.31;98548.97;7227117;40;20273;31
2023/09/18 11:55:03;;;;;;;3.95;1.90;;;;;;;22.93;73.50;98551.56;7270335;39;20504;31
2023/09/18 12:05:48;;;;;;;6.72;1.90;;;;;;;23.09;73.12;98528.59;7235749;40;21411;31
2023/09/18 12:16:27;;;;;;;3.87;2.03;;;;;;;23.06;72.64;98545.63;7291563;39;20290;31
2023/09/18 12:27:09;;;;;;;2.40;1.90;;;;;;;23.02;73.05;98538.16;7284507;40;20268;31
2023/09/18 12:32:42;;;;;;;5.40;2.23;;;;;;;23.05;72.26;98534.88;7277883;40;20293;31
2023/09/18 12:38:04;;;;;;;3.70;2.00;;;;;;;23.10;71.29;98546.75;7262149;39;20773;31
2023/09/18 12:43:34;;;;;;;4.20;2.00;;;;;;;23.07;70.79;98540.97;7261640;39;21085;31
2023/09/18 12:48:52;;;;;;;6.70;2.30;;;;;;;23.13;71.38;98546.22;7272869;39;20471;31
2023/09/18 12:54:11;;;;;;;7.30;2.10;;;;;;;23.20;71.39;98546.84;7292174;39;20244;31
2023/09/18 12:59:50;;;;;;;4.83;2.13;;;;;;;23.21;70.79;98531.19;7315580;39;20777;31
2023/09/18 13:10:11;;;;;;;4.30;1.80;;;;;;;23.53;69.54;98534.69;7296229;39;20262;31
2023/09/18 13:15:47;;;;;;;4.40;2.20;;;;;;;23.49;68.77;98541.00;7247931;40;20234;31
2023/09/18 13:21:24;;;;;;;4.60;2.00;;;;;;;23.57;69.44;98516.56;7279556;39;20243;31
2023/09/18 13:27:00;;;;;;;3.27;1.70;;;;;;;23.56;68.86;98517.66;7259828;40;20432;31
2023/09/18 13:32:32;;;;;;;5.07;1.90;;;;;;;23.55;68.36;98505.00;7031827;40;20242;31
2023/09/18 13:37:53;;;;;;;4.90;1.90;;;;;;;23.60;69.31;98513.28;7206947;40;20280;31
2023/09/18 13:43:32;;;;;;;3.25;2.15;;;;;;;23.47;69.82;98511.00;7257864;40;20257;31
2023/09/18 13:49:04;;;;;;;3.78;1.92;;;;;;;23.53;69.07;98501.69;7206691;40;20452;31
2023/09/18 13:54:24;;;;;;;6.70;2.90;;;;;;;23.86;68.40;98500.47;7237791;40;20260;31
2023/09/18 13:59:59;;;;;;;4.72;2.17;;;;;;;23.92;68.60;98504.88;7239971;40;20241;31
2023/09/18 14:05:33;;;;;;;5.78;1.90;;;;;;;23.79;66.39;98483.34;7276433;39;20261;31
2023/09/18 14:10:53;;;;;;;3.70;2.05;;;;;;;23.79;67.04;98483.34;7228437;40;20280;31
2023/09/18 14:21:33;;;;;;;33.10;24.10;;;;;;;23.91;65.08;98470.22;7296129;39;20989;31
2023/09/18 14:27:06;;;;;;;25.30;18.10;;;;;;;23.84;64.61;98466.84;7252242;40;20291;31
2023/09/18 14:32:27;;;;;;;6.03;3.83;;;;;;;23.94;65.13;98461.41;7215889;40;20289;31
2023/09/18 14:43:07;;;;;;;9.66;7.64;;;;;;;23.82;64.62;98452.56;7297236;39;20260;31
2023/09/18 14:53:32;;;;;;;8.90;7.00;;;;;;;23.87;64.08;98418.72;7306732;39;20713;31
2023/09/18 14:59:08;;;;;;;3.87;1.95;;;;;;;23.93;64.05;98421.19;7341518;39;20233;31
2023/09/18 15:04:38;;;;;;;;;;;;;;;;;;;;;
2023/09/18 15:10:05;;;;;;;3.47;1.77;;;;;;;23.79;66.39;98407.13;7239155;40;20245;31
2023/09/18 15:15:41;;;;;;;3.72;1.90;;;;;;;23.80;64.31;98395.00;7276497;39;20332;31
2023/09/18 15:21:17;;;;;;;4.96;2.00;;;;;;;23.91;64.71;98397.78;7286723;39;20278;31
2023/09/18 15:26:37;;;;;;;3.50;1.60;;;;;;;23.86;64.22;98403.28;7237609;40;20341;31
2023/09/18 15:32:16;;;;;;;2.46;1.58;;;;;;;23.73;64.98;98405.47;7290700;40;20757;31
2023/09/18 15:37:37;;;;;;;3.78;1.50;;;;;;;23.67;65.11;98416.72;7245635;40;20788;31
2023/09/18 15:42:58;;;;;;;2.52;1.40;;;;;;;23.61;66.00;98410.34;7248800;40;20261;31
2023/09/18 15:48:34;;;;;;;4.62;1.46;;;;;;;23.53;64.75;98408.13;7227750;40;20772;31
2023/09/18 15:53:54;;;;;;;3.15;1.60;;;;;;;23.54;65.46;98409.78;7262549;40;20716;31
2023/09/18 15:59:15;;;;;;;5.47;2.17;;;;;;;23.60;65.76;98419.72;7294339;39;20236;31
2023/09/18 16:04:54;;;;;;;5.78;2.20;;;;;;;23.56;65.47;98412.28;7279172;39;20311;31
2023/09/18 16:10:16;;;;;;;3.70;1.93;;;;;;;23.58;64.81;98413.66;7291409;39;20327;31
2023/09/18 16:15:36;;;;;;;3.50;1.75;;;;;;;23.52;65.69;98411.97;7293427;39;20434;31
2023/09/18 16:21:12;;;;;;;2.80;1.65;;;;;;;23.42;64.90;98400.09;7270587;40;20783;31
2023/09/18 16:26:32;;;;;;;3.53;1.80;;;;;;;23.40;65.93;98394.84;7226504;40;20531;31
2023/09/18 16:32:07;;;;;;;3.55;1.80;;;;;;;23.40;66.68;98425.09;7247556;40;20365;31
2023/09/18 16:37:45;;;;;;;5.90;3.60;;;;;;;23.29;66.58;98438.00;7257337;40;20324;31
2023/09/18 16:43:19;;;;;;;4.18;2.03;;;;;;;23.27;66.94;98442.91;7183450;40;20422;31
2023/09/18 16:48:39;;;;;;;3.37;2.10;;;;;;;23.25;67.36;98475.38;7260458;40;20281;31
2023/09/18 16:54:15;;;;;;;5.45;1.60;;;;;;;23.02;68.79;98538.16;7255501;40;20241;31
2023/09/18 16:59:50;;;;;;;5.85;1.90;;;;;;;22.24;67.03;98591.78;7197168;40;20336;31
2023/09/18 17:10:31;;;;;;;2.13;1.30;;;;;;;20.99;72.07;98460.84;7245159;40;21657;31
2023/09/18 17:20:55;;;;;;;2.05;1.20;;;;;;;21.03;73.38;98434.59;7325659;39;21244;31
2023/09/18 17:31:39;;;;;;;3.85;1.30;;;;;;;21.00;72.55;98446.06;7321713;39;21115;31
2023/09/18 17:37:11;;;;;;;2.50;1.53;;;;;;;20.99;73.35;98441.66;7260199;39;20264;31
2023/09/18 17:42:34;;;;;;;2.64;1.52;;;;;;;20.97;73.07;98452.06;7258373;40;20421;31
2023/09/18 17:53:19;;;;;;;3.50;1.25;;;;;;;20.56;75.43;98432.25;7252160;39;21101;31
2023/09/18 17:58:38;;;;;;;2.10;1.53;;;;;;;20.57;75.12;98428.44;7260932;40;20257;31
2023/09/18 18:04:14;;;;;;;4.40;1.30;;;;;;;20.46;74.79;98436.72;7284996;39;20259;31
2023/09/18 18:09:51;;;;;;;5.25;1.50;;;;;;;20.37;75.10;98471.06;7320951;39;20341;31
2023/09/18 18:15:13;;;;;;;2.75;1.30;;;;;;;20.26;76.83;98491.94;7247360;40;20261;31
2023/09/18 18:20:48;;;;;;;3.67;1.30;;;;;;;20.08;76.23;98483.94;7258167;40;20250;31
2023/09/18 18:26:27;;;;;;;3.55;1.55;;;;;;;20.06;77.13;98491.53;7246006;40;20364;31
2023/09/18 18:31:49;;;;;;;2.22;1.27;;;;;;;20.19;76.70;98491.22;7217248;40;20294;31
2023/09/18 18:37:23;;;;;;;2.75;1.70;;;;;;;20.24;78.08;98508.59;7242913;40;20787;31
2023/09/18 18:42:56;;;;;;;3.23;1.60;;;;;;;20.14;78.64;98510.31;7255047;39;20341;31
2023/09/18 18:48:36;;;;;;;2.80;1.40;;;;;;;20.04;78.24;98519.16;7208734;40;20247;31
2023/09/18 18:53:57;;;;;;;4.85;1.50;;;;;;;19.89;78.65;98523.47;7291325;39;20726;31
2023/09/18 19:04:42;;;;;;;3.47;1.40;;;;;;;19.76;80.11;98551.94;7302947;39;21199;31
2023/09/18 19:15:09;;;;;;;3.60;1.40;;;;;;;19.68;80.96;98555.06;7293518;39;20278;31
2023/09/18 19:20:47;;;;;;;2.95;1.40;;;;;;;19.60;81.15;98550.78;7276798;40;20299;31
2023/09/18 19:26:24;;;;;;;4.33;1.57;;;;;;;19.69;81.22;98568.50;7245691;39;20241;31
2023/09/18 19:31:49;;;;;;;2.93;1.60;;;;;;;19.67;81.29;98573.38;7256910;40;20327;31
2023/09/18 19:37:25;;;;;;;3.10;1.50;;;;;;;19.59;81.05;98573.72;7268284;39;20241;31
2023/09/18 19:43:02;;;;;;;2.90;1.30;;;;;;;19.71;81.40;98580.00;7255527;39;20241;31
2023/09/18 19:48:37;;;;;;;3.53;1.40;;;;;;;19.75;81.58;98599.50;7231607;40;20361;31
2023/09/18 19:54:15;;;;;;;5.15;1.60;;;;;;;19.67;81.55;98605.34;7258972;40;20343;31
2023/09/18 19:59:37;;;;;;;2.70;1.50;;;;;;;19.59;80.94;98605.72;7236528;40;20389;31
2023/09/18 20:04:59;;;;;;;2.46;1.50;;;;;;;19.45;82.18;98587.88;7189742;40;20220;31
2023/09/18 20:10:34;;;;;;;3.98;1.30;;;;;;;19.38;81.78;98587.97;7216486;40;20277;31
2023/09/18 20:16:11;;;;;;;4.30;1.40;;;;;;;19.37;82.61;98575.37;7247346;39;20240;31
2023/09/18 20:21:34;;;;;;;2.34;1.50;;;;;;;19.38;82.08;98590.72;7334620;39;20270;31
2023/09/18 20:27:10;;;;;;;1.97;1.43;;;;;;;19.26;82.58;98578.97;7338692;39;20251;31
2023/09/18 20:32:33;;;;;;;4.50;1.43;;;;;;;19.30;81.21;98574.69;7295702;39;20256;31
2023/09/18 20:37:53;;;;;;;3.15;1.40;;;;;;;19.30;81.02;98591.09;7257402;40;20245;31
2023/09/18 20:43:34;;;;;;;2.07;1.20;;;;;;;19.31;81.52;98592.72;7233570;40;20498;31
2023/09/18 20:48:48;;;;;;;2.20;1.30;;;;;;;19.44;80.76;98597.19;7038198;40;20230;31
2023/09/18 20:54:13;;;;;;;3.30;1.60;;;;;;;19.35;81.62;98593.91;7355142;39;20331;31
2023/09/18 21:04:53;;;;;;;3.33;1.37;;;;;;;19.38;80.45;98612.59;7344082;39;21468;31
2023/09/18 21:10:16;;;;;;;2.40;1.30;;;;;;;19.35;80.90;98610.31;7308973;39;20244;31
2023/09/18 21:15:39;;;;;;;1.90;1.40;;;;;;;19.39;80.36;98614.25;7325187;39;20334;31
2023/09/18 21:21:13;;;;;;;2.10;1.30;;;;;;;19.43;80.42;98611.88;7298930;39;20334;31
2023/09/18 21:26:40;;;;;;;1.82;1.30;;;;;;;19.49;80.31;98621.87;7296259;40;20241;31
2023/09/18 21:32:01;;;;;;;1.90;1.30;;;;;;;19.44;80.29;98608.91;7295998;39;20364;31
2023/09/18 21:42:47;;;;;;;3.37;1.50;;;;;;;19.39;80.31;98617.00;7328703;39;20966;31
2023/09/18 21:48:21;;;;;;;2.22;1.50;;;;;;;19.28;79.82;98629.56;7259632;40;20714;31
2023/09/18 21:53:57;;;;;;;3.67;1.40;;;;;;;19.22;79.37;98632.41;7287868;39;20244;31
2023/09/18 21:59:34;;;;;;;3.90;1.40;;;;;;;19.18;79.30;98639.41;7321819;39;20262;31
2023/09/18 22:10:15;;;;;;;3.97;1.30;;;;;;;19.02;80.69;98643.66;7310539;39;20268;31
2023/09/18 22:20:56;;;;;;;3.65;1.73;;;;;;;18.97;81.09;98659.09;7263218;39;21156;31
2023/09/18 22:26:17;;;;;;;3.00;1.50;;;;;;;19.00;81.17;98664.91;7277853;39;20714;31
2023/09/18 22:31:56;;;;;;;4.05;1.40;;;;;;;19.07;81.17;98662.91;7287432;39;20341;31
2023/09/18 22:37:31;;;;;;;2.55;1.60;;;;;;;19.00;81.01;98666.84;7222521;40;20257;31
2023/09/18 22:43:28;;;;;;;2.60;1.40;;;;;;;19.00;81.79;98672.28;7224780;40;20236;31
2023/09/18 22:49:20;;;;;;;3.20;1.40;;;;;;;19.02;81.70;98670.97;7258726;40;20246;31
2023/09/18 22:55:14;;;;;;;1.67;1.17;;;;;;;18.90;81.29;98681.06;7286339;39;20307;31
2023/09/18 23:11:05;;;;;;;3.52;1.60;;;;;;;18.76;82.77;98683.13;7310786;39;21188;31
2023/09/18 23:16:35;;;;;;;2.90;1.50;;;;;;;18.77;82.14;98695.72;7311314;39;20432;31
2023/09/18 23:22:11;;;;;;;2.30;1.60;;;;;;;18.69;82.79;98695.22;7343178;39;20341;31
2023/09/18 23:27:45;;;;;;;2.58;1.58;;;;;;;18.76;82.37;98699.53;7300697;39;20256;31
2023/09/18 23:33:24;;;;;;;3.10;1.70;;;;;;;18.78;83.01;98696.56;7329721;39;20377;31
2023/09/18 23:38:47;;;;;;;3.40;1.40;;;;;;;18.74;82.28;98704.38;7244628;40;20249;31
2023/09/18 23:44:18;;;;;;;6.00;1.50;;;;;;;18.66;82.79;98701.97;7319144;39;20266;31
2023/09/18 23:49:40;;;;;;;2.30;1.60;;;;;;;18.74;82.84;98706.25;7285714;40;20311;31
2023/09/18 23:55:16;;;;;;;4.95;2.00;;;;;;;18.74;82.58;98709.81;7300182;40;20244;31
